Time;durP1;ratioP1;P1;durP2;ratioP2;P2;SDS_P1;SDS_P2;PMS_P1;PMS_P2;Temp;Humidity;BMP_temperature;BMP_pressure;BME280_temperature;BME280_humidity;BME280_pressure;Samples;Min_cycle;Max_cycle;Signal;HPM_P1;HPM_P2
2021/04/25 00:00:54;;;;;;;15.27;8.17;;;;;;;;;;5038679;28;20434;-73
2021/04/25 00:03:20;;;;;;;15.50;8.10;;;;;;;;;;5035987;28;20419;-73
2021/04/25 00:05:46;;;;;;;10.00;6.33;;;;;;;;;;5050570;28;20491;-73
2021/04/25 00:08:12;;;;;;;13.03;9.50;;;;;;;;;;5054701;28;20821;-73
2021/04/25 00:10:38;;;;;;;10.47;5.57;;;;;;;;;;5055231;28;20426;-73
2021/04/25 00:13:04;;;;;;;11.20;6.43;;;;;;;;;;5055510;28;20445;-73
2021/04/25 00:15:30;;;;;;;10.80;6.17;;;;;;;;;;5042771;28;20547;-73
2021/04/25 00:17:57;;;;;;;14.37;7.67;;;;;;;;;;5055369;28;20500;-73
2021/04/25 00:20:23;;;;;;;10.23;5.20;;;;;;;;;;5042744;28;20485;-72
2021/04/25 00:22:49;;;;;;;8.93;5.90;;;;;;;;;;5035116;28;20430;-72
2021/04/25 00:25:16;;;;;;;9.30;5.40;;;;;;;;;;5035210;28;20430;-72
2021/04/25 00:27:42;;;;;;;16.77;15.03;;;;;;;;;;5035470;28;20414;-72
2021/04/25 00:30:10;;;;;;;13.70;6.70;;;;;;;;;;5043559;28;20431;-72
2021/04/25 00:32:36;;;;;;;8.90;5.70;;;;;;;;;;5055280;28;20791;-72
2021/04/25 00:35:03;;;;;;;7.10;4.87;;;;;;;;;;5052581;28;20460;-72
2021/04/25 00:37:29;;;;;;;10.97;6.00;;;;;;;;;;5054556;28;20479;-72
2021/04/25 00:39:55;;;;;;;12.57;5.67;;;;;;;;;;5046918;28;20430;-72
2021/04/25 00:42:21;;;;;;;12.80;6.13;;;;;;;;;;5035061;28;20414;-72
2021/04/25 00:44:48;;;;;;;8.13;4.90;;;;;;;;;;5034833;28;20521;-72
2021/04/25 00:47:14;;;;;;;8.30;4.50;;;;;;;;;;5034921;28;20417;-72
2021/04/25 00:49:40;;;;;;;9.13;5.93;;;;;;;;;;5034486;28;20549;-72
2021/04/25 00:52:07;;;;;;;10.70;5.50;;;;;;;;;;5034721;28;20471;-73
2021/04/25 00:54:33;;;;;;;8.10;4.57;;;;;;;;;;5034760;28;20462;-72
2021/04/25 00:56:59;;;;;;;11.10;5.00;;;;;;;;;;5034634;28;20441;-73
2021/04/25 00:59:29;;;;;;;9.20;4.60;;;;;;;;;;5036345;28;20437;-72
2021/04/25 01:01:55;;;;;;;9.40;5.40;;;;;;;;;;5055078;28;20406;-73
2021/04/25 01:04:21;;;;;;;8.70;5.20;;;;;;;;;;5053410;28;20434;-73
2021/04/25 01:06:47;;;;;;;10.20;4.90;;;;;;;;;;5052362;28;20790;-73
2021/04/25 01:09:14;;;;;;;7.40;5.37;;;;;;;;;;5054761;28;20401;-73
2021/04/25 01:11:40;;;;;;;7.63;4.40;;;;;;;;;;5053600;28;20457;-72
2021/04/25 01:14:06;;;;;;;10.30;5.50;;;;;;;;;;5052920;28;20985;-72
2021/04/25 01:16:32;;;;;;;6.63;4.67;;;;;;;;;;5053065;28;20423;-73
2021/04/25 01:18:58;;;;;;;10.60;5.60;;;;;;;;;;5054486;28;20440;-73
2021/04/25 01:21:25;;;;;;;8.00;5.00;;;;;;;;;;5053303;28;20435;-72
2021/04/25 01:23:51;;;;;;;7.27;4.57;;;;;;;;;;5054032;28;20479;-72
2021/04/25 01:26:17;;;;;;;6.80;5.10;;;;;;;;;;5041931;28;20443;-72
2021/04/25 01:28:43;;;;;;;7.97;4.93;;;;;;;;;;5033932;28;20503;-72
2021/04/25 01:31:09;;;;;;;13.93;5.13;;;;;;;;;;5044301;28;20436;-72
2021/04/25 01:33:35;;;;;;;11.20;5.20;;;;;;;;;;5053758;28;20519;-72
2021/04/25 01:36:02;;;;;;;7.20;4.67;;;;;;;;;;5052963;28;20428;-72
2021/04/25 01:38:28;;;;;;;10.57;5.33;;;;;;;;;;5053826;28;20402;-72
2021/04/25 01:40:54;;;;;;;10.03;5.83;;;;;;;;;;5051559;28;20441;-72
2021/04/25 01:43:20;;;;;;;9.57;6.00;;;;;;;;;;5053994;28;20425;-72
2021/04/25 01:45:46;;;;;;;6.30;4.70;;;;;;;;;;5050556;28;20441;-72
2021/04/25 01:48:12;;;;;;;8.87;5.00;;;;;;;;;;5053819;28;20758;-72
2021/04/25 01:50:38;;;;;;;8.10;4.93;;;;;;;;;;5051978;28;20433;-72
2021/04/25 01:53:05;;;;;;;9.20;5.77;;;;;;;;;;5053928;28;20499;-72
2021/04/25 01:55:35;;;;;;;10.60;4.30;;;;;;;;;;5052318;28;20472;-72
2021/04/25 01:58:01;;;;;;;8.93;6.03;;;;;;;;;;5051895;28;20491;-72
2021/04/25 02:00:29;;;;;;;10.43;5.50;;;;;;;;;;5041519;28;20919;-72
2021/04/25 02:02:55;;;;;;;16.00;6.43;;;;;;;;;;5037699;28;20442;-72
2021/04/25 02:05:22;;;;;;;10.87;5.33;;;;;;;;;;5053117;28;20417;-73
2021/04/25 02:07:49;;;;;;;11.80;5.23;;;;;;;;;;5034526;28;20430;-72
2021/04/25 02:10:15;;;;;;;6.70;4.60;;;;;;;;;;5031858;28;20443;-73
2021/04/25 02:12:41;;;;;;;8.70;5.90;;;;;;;;;;5032950;28;20447;-73
2021/04/25 02:15:08;;;;;;;8.23;5.20;;;;;;;;;;5032983;28;20449;-71
2021/04/25 02:17:34;;;;;;;11.50;5.23;;;;;;;;;;5047859;28;20491;-72
2021/04/25 02:20:00;;;;;;;10.13;6.43;;;;;;;;;;5053094;28;20397;-72
2021/04/25 02:22:26;;;;;;;9.43;6.20;;;;;;;;;;5037728;28;20446;-72
2021/04/25 02:24:52;;;;;;;10.10;5.60;;;;;;;;;;5032914;28;20441;-72
2021/04/25 02:27:18;;;;;;;13.87;6.33;;;;;;;;;;5045330;28;20487;-72
2021/04/25 02:29:45;;;;;;;11.50;7.23;;;;;;;;;;5053084;28;20440;-72
2021/04/25 02:32:11;;;;;;;10.13;7.13;;;;;;;;;;5040781;28;20548;-71
2021/04/25 02:34:37;;;;;;;8.53;6.40;;;;;;;;;;5032972;28;20600;-72
2021/04/25 02:37:03;;;;;;;9.40;7.33;;;;;;;;;;5039395;28;20494;-72
2021/04/25 02:39:29;;;;;;;16.03;7.80;;;;;;;;;;5051443;28;20406;-72
2021/04/25 02:41:55;;;;;;;13.70;7.13;;;;;;;;;;5051744;28;20453;-72
2021/04/25 02:44:21;;;;;;;10.70;6.93;;;;;;;;;;5052693;28;20829;-72
2021/04/25 02:46:47;;;;;;;10.67;6.13;;;;;;;;;;5049321;28;20421;-72
2021/04/25 02:49:13;;;;;;;9.70;6.30;;;;;;;;;;5032673;28;20445;-72
2021/04/25 02:51:39;;;;;;;10.30;7.33;;;;;;;;;;5033782;28;20840;-72
2021/04/25 02:54:05;;;;;;;12.87;6.50;;;;;;;;;;5052424;28;20534;-72
2021/04/25 02:56:31;;;;;;;13.20;7.17;;;;;;;;;;5051516;28;20393;-73
2021/04/25 02:58:57;;;;;;;13.60;6.60;;;;;;;;;;5046357;28;20415;-72
2021/04/25 03:01:23;;;;;;;11.00;8.03;;;;;;;;;;5036925;28;20429;-72
2021/04/25 03:03:49;;;;;;;10.60;7.10;;;;;;;;;;5057641;28;20628;-72
2021/04/25 03:06:15;;;;;;;7.10;6.03;;;;;;;;;;5058068;28;20425;-72
2021/04/25 03:08:41;;;;;;;11.73;8.03;;;;;;;;;;5056233;28;20421;-72
2021/04/25 03:11:08;;;;;;;10.20;6.97;;;;;;;;;;5059056;28;20817;-72
2021/04/25 03:13:34;;;;;;;15.73;6.37;;;;;;;;;;5057595;28;20529;-72
2021/04/25 03:16:00;;;;;;;13.07;6.13;;;;;;;;;;5059055;28;20734;-72
2021/04/25 03:18:26;;;;;;;10.33;6.60;;;;;;;;;;5057632;28;20431;-72
2021/04/25 03:20:52;;;;;;;10.20;6.50;;;;;;;;;;5058723;28;20394;-72
2021/04/25 03:23:18;;;;;;;12.67;6.97;;;;;;;;;;5057790;28;20455;-72
2021/04/25 03:25:44;;;;;;;9.93;6.60;;;;;;;;;;5058884;28;20797;-72
2021/04/25 03:28:10;;;;;;;13.50;6.13;;;;;;;;;;5056374;28;20512;-72
2021/04/25 03:30:36;;;;;;;13.90;6.83;;;;;;;;;;5057648;28;20455;-72
2021/04/25 03:33:03;;;;;;;11.93;7.47;;;;;;;;;;5057477;28;20452;-72
2021/04/25 03:35:29;;;;;;;12.90;6.30;;;;;;;;;;5058763;28;20983;-72
2021/04/25 03:37:55;;;;;;;9.87;6.10;;;;;;;;;;5057805;28;20914;-72
2021/04/25 03:40:21;;;;;;;9.57;6.43;;;;;;;;;;5057756;28;20482;-72
2021/04/25 03:42:48;;;;;;;9.37;6.53;;;;;;;;;;5056968;28;20484;-72
2021/04/25 03:45:14;;;;;;;11.47;6.40;;;;;;;;;;5058705;28;20641;-72
2021/04/25 03:47:41;;;;;;;11.10;6.47;;;;;;;;;;5050127;28;20429;-72
2021/04/25 03:50:08;;;;;;;9.50;5.87;;;;;;;;;;5038738;28;20412;-72
2021/04/25 03:52:34;;;;;;;10.40;6.27;;;;;;;;;;5044749;28;20461;-72
2021/04/25 03:55:00;;;;;;;11.00;5.83;;;;;;;;;;5058767;28;20455;-72
2021/04/25 03:57:26;;;;;;;15.33;5.90;;;;;;;;;;5056896;28;20434;-72
2021/04/25 03:59:52;;;;;;;8.70;6.33;;;;;;;;;;5058847;28;20408;-72
2021/04/25 04:02:18;;;;;;;12.10;6.73;;;;;;;;;;5058294;28;20394;-72
2021/04/25 04:04:44;;;;;;;11.20;6.87;;;;;;;;;;5058441;28;20439;-72
2021/04/25 04:07:10;;;;;;;11.87;6.80;;;;;;;;;;5051842;28;20437;-72
2021/04/25 04:09:36;;;;;;;10.90;7.10;;;;;;;;;;5038308;28;20404;-73
2021/04/25 04:12:02;;;;;;;12.00;6.77;;;;;;;;;;5036597;28;20482;-72
2021/04/25 04:14:28;;;;;;;14.60;7.87;;;;;;;;;;5035750;28;20461;-73
2021/04/25 04:16:54;;;;;;;12.77;6.93;;;;;;;;;;5034012;28;20422;-73
2021/04/25 04:19:20;;;;;;;11.53;7.10;;;;;;;;;;5052729;28;20432;-73
2021/04/25 04:21:46;;;;;;;10.80;7.00;;;;;;;;;;5055419;28;20401;-72
2021/04/25 04:24:12;;;;;;;14.23;7.97;;;;;;;;;;5054386;28;20457;-73
2021/04/25 04:26:38;;;;;;;11.23;6.63;;;;;;;;;;5054309;28;20798;-72
2021/04/25 04:29:04;;;;;;;12.43;7.80;;;;;;;;;;5053652;28;20444;-73
2021/04/25 04:31:30;;;;;;;16.27;8.07;;;;;;;;;;5055553;28;20409;-73
2021/04/25 04:33:57;;;;;;;12.63;7.33;;;;;;;;;;5038244;28;20535;-73
2021/04/25 04:36:23;;;;;;;11.40;7.00;;;;;;;;;;5035358;28;20399;-73
2021/04/25 04:38:49;;;;;;;11.10;7.40;;;;;;;;;;5049301;28;20479;-73
2021/04/25 04:41:15;;;;;;;14.50;6.70;;;;;;;;;;5055398;28;20398;-73
2021/04/25 04:43:41;;;;;;;13.37;7.43;;;;;;;;;;5053936;28;20962;-72
2021/04/25 04:46:07;;;;;;;11.40;7.27;;;;;;;;;;5054894;28;20400;-72
2021/04/25 04:48:33;;;;;;;15.30;7.40;;;;;;;;;;5042131;28;20792;-72
2021/04/25 04:50:59;;;;;;;12.60;7.10;;;;;;;;;;5035166;28;20402;-72
2021/04/25 04:53:25;;;;;;;12.20;7.43;;;;;;;;;;5045088;28;20563;-72
2021/04/25 04:55:51;;;;;;;13.40;7.77;;;;;;;;;;5054849;28;20488;-72
2021/04/25 04:58:17;;;;;;;13.13;7.60;;;;;;;;;;5053213;28;20433;-72
2021/04/25 05:00:43;;;;;;;13.33;7.03;;;;;;;;;;5053233;28;20421;-72
2021/04/25 05:03:09;;;;;;;11.93;7.67;;;;;;;;;;5052001;28;20452;-72
2021/04/25 05:05:35;;;;;;;12.80;8.63;;;;;;;;;;5054506;28;20433;-72
2021/04/25 05:08:01;;;;;;;16.60;7.90;;;;;;;;;;5053169;28;20770;-72
2021/04/25 05:10:27;;;;;;;18.20;9.30;;;;;;;;;;5049270;28;20909;-72
2021/04/25 05:12:53;;;;;;;13.57;7.70;;;;;;;;;;5039322;28;20446;-72
2021/04/25 05:15:19;;;;;;;9.60;7.60;;;;;;;;;;5054515;28;20499;-72
2021/04/25 05:17:45;;;;;;;13.13;7.70;;;;;;;;;;5051988;28;20430;-72
2021/04/25 05:20:12;;;;;;;15.43;8.77;;;;;;;;;;5054470;28;20813;-72
2021/04/25 05:22:38;;;;;;;11.97;7.87;;;;;;;;;;5049208;28;20515;-72
2021/04/25 05:25:04;;;;;;;11.50;9.57;;;;;;;;;;5034252;28;20411;-72
2021/04/25 05:27:30;;;;;;;13.17;8.93;;;;;;;;;;5035287;28;20837;-72
2021/04/25 05:29:56;;;;;;;15.27;9.33;;;;;;;;;;5052738;28;20416;-73
2021/04/25 05:32:23;;;;;;;13.60;8.93;;;;;;;;;;5052718;28;20775;-72
2021/04/25 05:34:49;;;;;;;15.87;9.77;;;;;;;;;;5034133;28;20537;-72
2021/04/25 05:37:15;;;;;;;13.80;9.73;;;;;;;;;;5033975;28;20468;-72
2021/04/25 05:39:41;;;;;;;12.87;9.30;;;;;;;;;;5053088;28;20511;-72
2021/04/25 05:42:08;;;;;;;20.23;10.20;;;;;;;;;;5052455;28;20409;-72
2021/04/25 05:44:34;;;;;;;13.70;10.20;;;;;;;;;;5049119;28;20425;-70
2021/04/25 05:47:00;;;;;;;14.90;10.30;;;;;;;;;;5052901;28;20467;-72
2021/04/25 05:49:26;;;;;;;14.10;10.03;;;;;;;;;;5052097;28;20441;-72
2021/04/25 05:51:52;;;;;;;17.20;10.20;;;;;;;;;;5052537;28;20405;-72
2021/04/25 05:54:18;;;;;;;16.23;11.37;;;;;;;;;;5037222;28;20467;-72
2021/04/25 05:56:44;;;;;;;18.73;10.30;;;;;;;;;;5053412;28;20421;-71
2021/04/25 05:59:10;;;;;;;18.10;11.03;;;;;;;;;;5052088;28;20441;-73
2021/04/25 06:01:36;;;;;;;15.53;11.00;;;;;;;;;;5051400;28;20402;-72
2021/04/25 06:04:04;;;;;;;17.20;12.20;;;;;;;;;;5040717;28;20541;-72
2021/04/25 06:06:30;;;;;;;16.90;10.43;;;;;;;;;;5052571;28;20422;-74
2021/04/25 06:08:56;;;;;;;13.90;10.50;;;;;;;;;;5044548;28;20782;-73
2021/04/25 06:11:22;;;;;;;16.30;11.37;;;;;;;;;;5052793;28;20501;-73
2021/04/25 06:13:48;;;;;;;16.87;11.80;;;;;;;;;;5052112;28;20449;-73
2021/04/25 06:16:14;;;;;;;17.13;11.83;;;;;;;;;;5050906;28;20425;-73
2021/04/25 06:18:41;;;;;;;15.00;11.50;;;;;;;;;;5051337;28;20983;-72
2021/04/25 06:21:07;;;;;;;19.30;10.70;;;;;;;;;;5052483;28;20410;-73
2021/04/25 06:23:33;;;;;;;15.53;11.00;;;;;;;;;;5049564;28;20471;-73
2021/04/25 06:25:59;;;;;;;16.70;11.20;;;;;;;;;;5038230;28;20484;-73
2021/04/25 06:28:27;;;;;;;16.13;10.40;;;;;;;;;;5040668;28;20492;-73
2021/04/25 06:30:54;;;;;;;16.77;11.50;;;;;;;;;;5050376;28;20429;-73
2021/04/25 06:33:20;;;;;;;16.60;10.60;;;;;;;;;;5048010;28;20454;-73
2021/04/25 06:35:47;;;;;;;16.20;11.20;;;;;;;;;;5044225;28;21068;-73
2021/04/25 06:38:13;;;;;;;18.43;10.33;;;;;;;;;;5044142;28;20462;-73
2021/04/25 06:40:39;;;;;;;15.50;11.93;;;;;;;;;;5051583;28;20422;-74
2021/04/25 06:43:05;;;;;;;17.27;11.50;;;;;;;;;;5047124;28;20475;-74
2021/04/25 06:45:31;;;;;;;19.07;11.90;;;;;;;;;;5051820;28;20918;-74
2021/04/25 06:47:58;;;;;;;15.77;10.93;;;;;;;;;;5050019;28;20783;-74
2021/04/25 06:50:24;;;;;;;17.17;12.20;;;;;;;;;;5051717;28;20433;-74
2021/04/25 06:52:50;;;;;;;16.27;12.50;;;;;;;;;;5049737;28;20857;-74
2021/04/25 06:55:18;;;;;;;15.80;11.70;;;;;;;;;;5032726;28;20917;-74
2021/04/25 06:57:45;;;;;;;18.97;12.77;;;;;;;;;;5032635;28;20411;-74
2021/04/25 07:00:11;;;;;;;19.67;11.83;;;;;;;;;;5032813;28;20728;-74
2021/04/25 07:02:37;;;;;;;17.87;12.43;;;;;;;;;;5032687;28;20524;-74
2021/04/25 07:05:05;;;;;;;19.80;12.20;;;;;;;;;;5051116;28;20555;-74
2021/04/25 07:07:31;;;;;;;14.33;10.97;;;;;;;;;;5053044;28;20816;-74
2021/04/25 07:09:58;;;;;;;16.77;12.20;;;;;;;;;;5051322;28;20503;-74
2021/04/25 07:12:24;;;;;;;16.03;11.10;;;;;;;;;;5052701;28;20425;-74
2021/04/25 07:14:51;;;;;;;18.30;12.00;;;;;;;;;;5051341;28;20610;-74
2021/04/25 07:17:17;;;;;;;18.20;13.10;;;;;;;;;;5052735;28;20433;-73
2021/04/25 07:19:43;;;;;;;16.60;11.10;;;;;;;;;;5051366;28;20488;-73
2021/04/25 07:22:09;;;;;;;25.13;13.10;;;;;;;;;;5052506;28;20425;-73
2021/04/25 07:24:35;;;;;;;17.33;12.43;;;;;;;;;;5051365;28;20426;-74
2021/04/25 07:27:01;;;;;;;18.37;12.10;;;;;;;;;;5052561;28;20453;-75
2021/04/25 07:29:28;;;;;;;16.87;12.43;;;;;;;;;;5050326;28;20430;-75
2021/04/25 07:31:54;;;;;;;19.27;12.57;;;;;;;;;;5034011;28;20831;-75
2021/04/25 07:34:20;;;;;;;20.90;12.33;;;;;;;;;;5036415;28;20843;-75
2021/04/25 07:36:46;;;;;;;19.47;12.30;;;;;;;;;;5048482;28;20415;-75
2021/04/25 07:39:12;;;;;;;15.40;11.60;;;;;;;;;;5050752;28;20869;-75
2021/04/25 07:41:39;;;;;;;16.43;11.93;;;;;;;;;;5051566;28;20777;-74
2021/04/25 07:44:05;;;;;;;15.63;11.70;;;;;;;;;;5051240;28;20445;-73
2021/04/25 07:46:31;;;;;;;27.53;14.30;;;;;;;;;;5053070;28;20439;-73
2021/04/25 07:48:57;;;;;;;15.27;11.43;;;;;;;;;;5055016;28;20469;-74
2021/04/25 07:51:23;;;;;;;17.80;13.40;;;;;;;;;;5056435;28;20559;-73
2021/04/25 07:53:52;;;;;;;19.50;12.23;;;;;;;;;;5054027;28;20454;-74
2021/04/25 07:56:18;;;;;;;19.00;12.80;;;;;;;;;;5056659;28;20410;-73
2021/04/25 07:58:44;;;;;;;19.57;12.63;;;;;;;;;;5054538;28;20420;-74
2021/04/25 08:01:10;;;;;;;15.30;11.37;;;;;;;;;;5056036;28;20406;-75
2021/04/25 08:03:36;;;;;;;16.50;11.67;;;;;;;;;;5055316;28;20440;-75
2021/04/25 08:06:04;;;;;;;14.47;10.70;;;;;;;;;;5035798;28;20427;-76
2021/04/25 08:08:31;;;;;;;18.63;11.60;;;;;;;;;;5055115;28;20417;-74
2021/04/25 08:10:57;;;;;;;17.43;12.53;;;;;;;;;;5055078;28;20464;-75
2021/04/25 08:13:24;;;;;;;16.50;10.97;;;;;;;;;;5055768;28;20461;-75
2021/04/25 08:15:50;;;;;;;17.30;12.33;;;;;;;;;;5037389;28;20486;-74
2021/04/25 08:18:16;;;;;;;18.40;12.60;;;;;;;;;;5035591;28;20407;-74
2021/04/25 08:20:42;;;;;;;14.63;10.60;;;;;;;;;;5035514;28;20433;-75
2021/04/25 08:23:08;;;;;;;16.23;10.60;;;;;;;;;;5035960;28;20422;-75
2021/04/25 08:25:34;;;;;;;21.13;12.40;;;;;;;;;;5050514;28;20516;-75
2021/04/25 08:28:00;;;;;;;13.07;10.30;;;;;;;;;;5056076;28;20410;-75
2021/04/25 08:30:26;;;;;;;18.70;11.97;;;;;;;;;;5054049;28;20996;-74
2021/04/25 08:32:53;;;;;;;15.30;10.53;;;;;;;;;;5055264;28;20463;-74
2021/04/25 08:35:19;;;;;;;16.97;10.23;;;;;;;;;;5053930;28;20501;-74
2021/04/25 08:37:45;;;;;;;11.90;9.13;;;;;;;;;;5054268;28;20961;-74
2021/04/25 08:40:12;;;;;;;19.27;11.07;;;;;;;;;;5054455;28;20552;-75
2021/04/25 08:42:38;;;;;;;13.03;9.33;;;;;;;;;;5053744;28;20438;-75
2021/04/25 08:45:04;;;;;;;11.90;8.10;;;;;;;;;;5044175;28;20438;-75
2021/04/25 08:47:30;;;;;;;12.80;9.70;;;;;;;;;;5035600;28;20410;-76
2021/04/25 08:49:59;;;;;;;16.23;9.93;;;;;;;;;;5044394;28;20488;-76
2021/04/25 08:52:26;;;;;;;15.73;9.93;;;;;;;;;;5054624;28;20536;-77
2021/04/25 08:54:53;;;;;;;17.03;9.40;;;;;;;;;;5053927;28;20941;-75
2021/04/25 08:57:19;;;;;;;10.60;8.57;;;;;;;;;;5055303;28;20769;-74
2021/04/25 08:59:45;;;;;;;17.37;9.90;;;;;;;;;;5051979;28;20424;-75
2021/04/25 09:02:11;;;;;;;18.10;10.27;;;;;;;;;;5054797;28;20409;-75
2021/04/25 09:04:37;;;;;;;15.40;10.03;;;;;;;;;;5052727;28;20405;-75
2021/04/25 09:07:04;;;;;;;18.03;11.77;;;;;;;;;;5033704;28;20395;-75
2021/04/25 09:09:42;;;;;;;14.57;9.90;;;;;;;;;;5034727;28;20416;-75
2021/04/25 09:12:09;;;;;;;15.40;10.37;;;;;;;;;;5034863;28;20413;-75
2021/04/25 09:14:37;;;;;;;18.50;12.40;;;;;;;;;;5035828;28;21014;-74
2021/04/25 09:17:04;;;;;;;21.50;10.20;;;;;;;;;;5055256;28;20822;-75
2021/04/25 09:19:49;;;;;;;20.70;10.83;;;;;;;;;;5053756;28;20763;-75
2021/04/25 09:22:15;;;;;;;15.40;10.10;;;;;;;;;;5034658;28;20411;-75
2021/04/25 09:24:41;;;;;;;16.07;11.10;;;;;;;;;;5035101;28;20411;-75
2021/04/25 09:27:08;;;;;;;16.63;10.73;;;;;;;;;;5054542;28;20430;-75
2021/04/25 09:29:50;;;;;;;19.53;11.67;;;;;;;;;;5052248;28;20433;-76
2021/04/25 09:32:20;;;;;;;15.13;9.97;;;;;;;;;;5034652;28;20848;-75
2021/04/25 09:34:46;;;;;;;15.70;10.27;;;;;;;;;;5035043;28;20497;-75
2021/04/25 09:37:14;;;;;;;20.80;9.87;;;;;;;;;;5054340;28;20402;-75
2021/04/25 09:39:57;;;;;;;13.93;10.50;;;;;;;;;;5053246;28;20398;-76
2021/04/25 09:42:23;;;;;;;15.03;9.70;;;;;;;;;;5034304;28;20415;-75
2021/04/25 09:44:51;;;;;;;16.90;10.13;;;;;;;;;;5035075;28;20399;-75
2021/04/25 09:47:17;;;;;;;14.90;9.50;;;;;;;;;;5054096;28;20394;-75
2021/04/25 09:49:48;;;;;;;16.17;11.27;;;;;;;;;;5052245;28;20406;-75
2021/04/25 09:52:15;;;;;;;12.40;9.60;;;;;;;;;;5051058;28;20453;-71
2021/04/25 09:54:41;;;;;;;16.20;9.50;;;;;;;;;;5050901;28;20458;-74
2021/04/25 09:57:08;;;;;;;20.40;9.40;;;;;;;;;;5049485;28;20414;-74
2021/04/25 09:59:51;;;;;;;14.17;9.50;;;;;;;;;;5053209;28;20418;-73
2021/04/25 10:02:17;;;;;;;16.10;9.87;;;;;;;;;;5046747;28;20432;-71
2021/04/25 10:04:43;;;;;;;17.27;10.27;;;;;;;;;;5052861;28;20398;-71
2021/04/25 10:07:13;;;;;;;15.00;10.23;;;;;;;;;;5044042;28;20421;-71
2021/04/25 10:09:39;;;;;;;13.77;9.13;;;;;;;;;;5051873;28;20929;-74
2021/04/25 10:12:05;;;;;;;14.60;10.00;;;;;;;;;;5052121;28;20509;-74
2021/04/25 10:14:33;;;;;;;16.93;9.47;;;;;;;;;;5052427;28;20453;-74
2021/04/25 10:17:00;;;;;;;16.30;9.77;;;;;;;;;;5051952;28;20911;-74
2021/04/25 10:19:26;;;;;;;12.80;9.13;;;;;;;;;;5052940;28;20513;-72
2021/04/25 10:21:52;;;;;;;15.93;9.07;;;;;;;;;;5050351;28;20437;-74
2021/04/25 10:24:20;;;;;;;16.90;10.67;;;;;;;;;;5051450;28;20433;-74
2021/04/25 10:26:52;;;;;;;15.93;9.53;;;;;;;;;;5051494;28;20426;-73
2021/04/25 10:29:23;;;;;;;13.10;9.30;;;;;;;;;;5044168;28;20430;-73
2021/04/25 10:31:49;;;;;;;21.90;9.43;;;;;;;;;;5049058;28;20436;-73
2021/04/25 10:34:19;;;;;;;15.50;9.57;;;;;;;;;;5043249;28;20480;-72
2021/04/25 10:36:50;;;;;;;13.80;9.47;;;;;;;;;;5052064;28;20434;-71
2021/04/25 10:39:35;;;;;;;16.23;9.70;;;;;;;;;;5051973;28;20398;-71
2021/04/25 10:44:58;;;;;;;15.20;8.80;;;;;;;;;;5053236;28;20395;-72
2021/04/25 10:47:24;;;;;;;15.00;9.80;;;;;;;;;;5053183;28;20450;-74
2021/04/25 10:49:50;;;;;;;13.03;9.77;;;;;;;;;;5052811;28;20823;-73
2021/04/25 10:52:22;;;;;;;14.10;9.60;;;;;;;;;;5051918;28;20437;-72
2021/04/25 10:55:07;;;;;;;15.07;9.50;;;;;;;;;;5053145;28;20449;-73
2021/04/25 10:57:33;;;;;;;16.13;9.47;;;;;;;;;;5034114;28;20433;-72
2021/04/25 11:00:17;;;;;;;15.87;9.30;;;;;;;;;;5033248;28;20453;-71
2021/04/25 11:02:49;;;;;;;11.63;7.90;;;;;;;;;;5033059;28;20427;-72
2021/04/25 11:05:16;;;;;;;17.53;8.60;;;;;;;;;;5034608;28;20418;-72
2021/04/25 11:07:43;;;;;;;13.07;8.90;;;;;;;;;;5052887;28;20406;-72
2021/04/25 11:10:09;;;;;;;14.17;8.10;;;;;;;;;;5051709;28;20822;-71
2021/04/25 11:12:40;;;;;;;14.73;8.50;;;;;;;;;;5052810;28;20514;-72
2021/04/25 11:15:06;;;;;;;13.87;8.47;;;;;;;;;;5050892;28;20445;-71
2021/04/25 11:17:32;;;;;;;13.13;7.93;;;;;;;;;;5036328;28;20510;-72
2021/04/25 11:19:58;;;;;;;13.80;8.93;;;;;;;;;;5033119;28;20417;-71
2021/04/25 11:22:46;;;;;;;10.20;7.67;;;;;;;;;;5035233;28;20454;-72
2021/04/25 11:25:31;;;;;;;17.40;9.37;;;;;;;;;;5037087;28;20402;-72
2021/04/25 11:27:57;;;;;;;13.40;8.90;;;;;;;;;;5036838;28;20504;-72
2021/04/25 11:30:34;;;;;;;13.57;8.90;;;;;;;;;;5036617;28;20406;-72
2021/04/25 11:33:19;;;;;;;12.70;8.80;;;;;;;;;;5054842;28;20548;-72
2021/04/25 11:35:45;;;;;;;11.63;8.07;;;;;;;;;;5055751;28;20442;-73
2021/04/25 11:38:11;;;;;;;9.63;7.33;;;;;;;;;;5056129;28;20487;-72
2021/04/25 11:40:38;;;;;;;11.93;7.43;;;;;;;;;;5056692;28;20393;-72
2021/04/25 11:43:04;;;;;;;13.53;7.23;;;;;;;;;;5055173;28;20532;-70
2021/04/25 11:45:30;;;;;;;10.53;7.70;;;;;;;;;;5055512;28;20429;-72
2021/04/25 11:47:58;;;;;;;11.03;8.73;;;;;;;;;;5054571;28;20604;-72
2021/04/25 11:50:32;;;;;;;12.03;8.27;;;;;;;;;;5056024;28;20401;-72
2021/04/25 11:52:59;;;;;;;12.73;7.90;;;;;;;;;;5054948;28;20564;-72
2021/04/25 11:55:25;;;;;;;15.23;7.80;;;;;;;;;;5056169;28;20456;-72
2021/04/25 11:57:52;;;;;;;13.93;8.77;;;;;;;;;;5054749;28;20426;-72
2021/04/25 12:00:21;;;;;;;14.63;8.30;;;;;;;;;;5055911;28;20406;-72
2021/04/25 12:02:51;;;;;;;11.03;8.03;;;;;;;;;;5054570;28;21024;-72
2021/04/25 12:05:20;;;;;;;15.00;8.00;;;;;;;;;;5055879;28;20489;-72
2021/04/25 12:07:46;;;;;;;14.90;9.33;;;;;;;;;;5054829;28;20437;-72
2021/04/25 12:10:13;;;;;;;18.60;8.10;;;;;;;;;;5054637;28;20418;-72
2021/04/25 12:13:08;;;;;;;13.97;8.50;;;;;;;;;;5053726;28;20457;-72
2021/04/25 12:15:42;;;;;;;14.60;7.57;;;;;;;;;;5048341;28;20809;-73
2021/04/25 12:18:08;;;;;;;13.03;7.77;;;;;;;;;;5037434;28;20479;-72
2021/04/25 12:20:39;;;;;;;11.40;6.97;;;;;;;;;;5036754;28;20426;-71
2021/04/25 12:23:05;;;;;;;12.33;7.93;;;;;;;;;;5052273;28;20454;-71
2021/04/25 12:25:31;;;;;;;11.33;6.90;;;;;;;;;;5055483;28;20826;-71
2021/04/25 12:27:58;;;;;;;11.80;7.50;;;;;;;;;;5054509;28;20539;-71
2021/04/25 12:30:29;;;;;;;12.60;7.47;;;;;;;;;;5055323;28;20402;-71
2021/04/25 12:33:09;;;;;;;13.40;6.87;;;;;;;;;;5038176;28;20458;-71
2021/04/25 12:35:36;;;;;;;14.63;8.23;;;;;;;;;;5035262;28;20482;-71
2021/04/25 12:38:21;;;;;;;11.60;7.53;;;;;;;;;;5051122;28;20426;-71
2021/04/25 12:41:13;;;;;;;12.83;7.30;;;;;;;;;;5055296;28;20401;-71
2021/04/25 12:43:48;;;;;;;11.70;7.23;;;;;;;;;;5053504;28;20439;-71
2021/04/25 12:46:19;;;;;;;12.13;7.63;;;;;;;;;;5052970;28;20431;-71
2021/04/25 12:48:51;;;;;;;11.03;7.53;;;;;;;;;;5053914;28;20406;-72
2021/04/25 12:51:28;;;;;;;13.40;7.30;;;;;;;;;;5054266;28;20395;-72
2021/04/25 12:53:58;;;;;;;11.20;6.73;;;;;;;;;;5053947;28;20461;-72
2021/04/25 12:56:24;;;;;;;10.10;6.77;;;;;;;;;;5054263;28;20405;-72
2021/04/25 12:59:04;;;;;;;11.03;8.00;;;;;;;;;;5054882;28;20864;-72
2021/04/25 13:01:30;;;;;;;10.73;6.53;;;;;;;;;;5053989;28;20513;-72
2021/04/25 13:03:56;;;;;;;9.70;6.53;;;;;;;;;;5054861;28;20425;-72
2021/04/25 13:06:26;;;;;;;14.27;7.17;;;;;;;;;;5053725;28;20446;-72
2021/04/25 13:08:52;;;;;;;9.60;7.03;;;;;;;;;;5055123;28;20402;-73
2021/04/25 13:11:18;;;;;;;11.63;6.37;;;;;;;;;;5053888;28;20398;-72
2021/04/25 13:13:44;;;;;;;15.80;7.80;;;;;;;;;;5054873;28;20425;-72
2021/04/25 13:16:12;;;;;;;10.83;5.90;;;;;;;;;;5054822;28;20453;-72
2021/04/25 13:18:38;;;;;;;8.23;6.10;;;;;;;;;;5035653;28;20781;-72
2021/04/25 13:21:08;;;;;;;9.60;6.00;;;;;;;;;;5038774;28;20848;-72
2021/04/25 13:23:35;;;;;;;10.03;6.33;;;;;;;;;;5049123;28;20529;-71
2021/04/25 13:26:07;;;;;;;9.27;6.20;;;;;;;;;;5035272;28;20478;-71
2021/04/25 13:28:33;;;;;;;7.07;5.20;;;;;;;;;;5051225;28;20430;-71
2021/04/25 13:30:59;;;;;;;11.27;6.40;;;;;;;;;;5053470;28;20522;-71
2021/04/25 13:33:29;;;;;;;8.77;5.93;;;;;;;;;;5053466;28;20452;-73
2021/04/25 13:35:55;;;;;;;8.00;4.87;;;;;;;;;;5053233;28;20453;-71
2021/04/25 13:38:23;;;;;;;8.57;5.50;;;;;;;;;;5053629;28;20437;-72
2021/04/25 13:40:50;;;;;;;10.27;5.87;;;;;;;;;;5053397;28;20409;-72
2021/04/25 13:43:17;;;;;;;6.97;4.83;;;;;;;;;;5053604;28;20475;-73
2021/04/25 13:45:43;;;;;;;8.63;5.53;;;;;;;;;;5054012;28;20491;-72
2021/04/25 13:48:09;;;;;;;9.23;4.87;;;;;;;;;;5053429;28;20816;-73
2021/04/25 13:50:36;;;;;;;7.83;6.10;;;;;;;;;;5054019;28;20864;-73
2021/04/25 13:53:02;;;;;;;7.17;4.70;;;;;;;;;;5075578;22;20879;-71
2021/04/25 13:55:28;;;;;;;5.97;4.20;;;;;;;;;;5054521;28;20949;-71
2021/04/25 13:57:54;;;;;;;7.90;5.23;;;;;;;;;;5053828;28;20524;-70
2021/04/25 14:00:22;;;;;;;7.30;4.60;;;;;;;;;;5053225;28;20824;-71
2021/04/25 14:02:50;;;;;;;7.20;4.33;;;;;;;;;;5052992;28;20449;-70
2021/04/25 14:05:16;;;;;;;7.30;4.17;;;;;;;;;;5054886;28;20780;-71
2021/04/25 14:07:42;;;;;;;7.90;4.27;;;;;;;;;;5052914;28;20426;-71
2021/04/25 14:10:11;;;;;;;8.93;4.10;;;;;;;;;;5053819;28;20409;-69
2021/04/25 14:12:37;;;;;;;8.40;3.80;;;;;;;;;;5044430;28;20454;-70
2021/04/25 14:15:04;;;;;;;6.37;4.30;;;;;;;;;;5034102;28;20505;-69
2021/04/25 14:17:30;;;;;;;8.83;4.40;;;;;;;;;;5041459;28;20521;-70
2021/04/25 14:19:56;;;;;;;5.77;4.60;;;;;;;;;;5051819;28;20413;-69
2021/04/25 14:22:22;;;;;;;13.50;4.40;;;;;;;;;;5049289;28;20502;-70
2021/04/25 14:24:49;;;;;;;9.17;5.40;;;;;;;;;;5051146;28;20421;-70
2021/04/25 14:27:16;;;;;;;7.40;6.40;;;;;;;;;;5050043;28;20448;-71
2021/04/25 14:29:42;;;;;;;6.80;4.00;;;;;;;;;;5053402;28;20779;-71
2021/04/25 14:32:08;;;;;;;9.13;5.23;;;;;;;;;;5050945;28;20425;-72